Chiricana — 3EKU3 — position and weather

sailwx.info

Track history (hours):
 
Tides and Currents Weather Stations Pressure Air Temp Water Temp Dewpoint Dewpoint Depression Visibility Wind Speed Wind Dir Waves Ship Positions

Chiricana

Last reported at 2015-Jul-04 20:07 UTC. Time now 2015-Jul-06 01:01 UTC.
Position N 01°51' E 102°28'.

Length 300 m; draft 13.3 m.

Type: Ship (hazmat cat D). MMSI: 372829000.

Date/timePositionNaut miles runAvg speedWind from/ knotsBaromVisibWave heightAir tempDewpointWater temp
2015-Jul-04 20:07N 01°51' E 102°28'1321.6
2015-Jul-04 19:31N 01°46' E 102°40'6519.3
2015-Jul-04 16:09N 01°12' E 103°35'17 6.4
2015-Jul-04 13:33N 01°16' E 103°51'0 0.0
2015-Jul-04 12:33N 01°16' E 103°51'0 0.0
2015-Jul-04 11:27N 01°16' E 103°51'0 0.0
2015-Jul-04 10:27N 01°16' E 103°51'0 0.0
2015-Jul-04 09:33N 01°16' E 103°51'0 0.0
2015-Jul-04 08:33N 01°16' E 103°51'0 0.0
2015-Jul-04 07:27N 01°16' E 103°51'0 0.0
2015-Jul-04 06:27N 01°16' E 103°51'0 0.0
2015-Jul-04 05:33N 01°16' E 103°51'0 0.0
2015-Jul-04 04:33N 01°16' E 103°51'0 0.0
2015-Jul-04 03:33N 01°16' E 103°51'0 0.0
2015-Jul-04 02:27N 01°16' E 103°51'0 0.0
2015-Jul-04 01:33N 01°16' E 103°51'0 0.0
2015-Jul-04 00:33N 01°16' E 103°51'0 0.0
2015-Jul-03 23:21N 01°16' E 103°51'0 0.0
2015-Jul-03 22:33N 01°16' E 103°51'0 0.0
2015-Jul-03 21:33N 01°16' E 103°51'0 0.0
2015-Jul-03 20:33N 01°16' E 103°51'0 0.0
2015-Jul-03 19:33N 01°16' E 103°51'0 0.0
2015-Jul-03 18:33N 01°16' E 103°51'0 0.0
2015-Jul-03 17:33N 01°16' E 103°51'0 0.0
2015-Jul-03 16:33N 01°16' E 103°51'0 0.0
2015-Jul-03 15:33N 01°16' E 103°51'0 0.0
2015-Jul-03 14:33N 01°16' E 103°51'0 0.0
2015-Jul-03 13:33N 01°16' E 103°51'4 4.1
2015-Jul-03 12:33N 01°14' E 103°54'8 8.4
2015-Jul-03 11:33N 01°16' E 104°02'1414.1
2015-Jul-03 10:32N 01°18' E 104°17'  
2015-Jun-28 21:04N 22°06' E 114°28'1018.9
2015-Jun-28 20:33N 22°16' E 114°29'2014.5
2015-Jun-28 19:10N 22°34' E 114°19'3 3.6
2015-Jun-28 18:24N 22°34' E 114°16'0 0.0
2015-Jun-28 17:07N 22°34' E 114°16'0 0.0
2015-Jun-28 16:25N 22°34' E 114°16'1 0.0
2015-Jun-27 20:26N 22°34' E 114°16'15 7.9
2015-Jun-27 18:30N 22°22' E 114°27'1415.1
2015-Jun-27 17:33N 22°09' E 114°22'1111.0
2015-Jun-27 16:33N 22°12' E 114°10'8 8.0
2015-Jun-27 15:33N 22°20' E 114°07'0 0.3
2015-Jun-27 14:33N 22°20' E 114°08'0 0.0
2015-Jun-27 13:31N 22°20' E 114°08'0 0.0
2015-Jun-27 12:32N 22°20' E 114°08'0 0.0
2015-Jun-27 11:29N 22°20' E 114°08'0 0.0
2015-Jun-27 10:31N 22°20' E 114°08'0 0.0
2015-Jun-27 09:25N 22°20' E 114°08'0 0.0
2015-Jun-27 08:31N 22°20' E 114°08'0 0.0
2015-Jun-27 07:28N 22°20' E 114°08'0 0.0
2015-Jun-27 06:32N 22°20' E 114°08'0 0.0
2015-Jun-27 05:31N 22°20' E 114°08'0 0.1
2015-Jun-27 04:25N 22°20' E 114°07'0 0.1
2015-Jun-27 03:29N 22°20' E 114°08'0 0.0
2015-Jun-27 02:32N 22°20' E 114°08'0 0.0
2015-Jun-27 01:31N 22°20' E 114°08'0 0.0
2015-Jun-27 00:32N 22°20' E 114°08'0 0.0
2015-Jun-26 23:31N 22°20' E 114°08'0 0.0
2015-Jun-26 22:29N 22°20' E 114°08'0 0.0
2015-Jun-26 21:29N 22°20' E 114°08'0 0.0
2015-Jun-26 20:31N 22°20' E 114°08'0 0.0
2015-Jun-26 19:28N 22°20' E 114°08'0 0.0
2015-Jun-26 18:32N 22°20' E 114°08'0 0.0
2015-Jun-26 17:28N 22°20' E 114°08'0 0.4
2015-Jun-26 16:34N 22°20' E 114°07'7 7.3
2015-Jun-26 15:33N 22°13' E 114°10'8 7.1
2015-Jun-26 14:28N 22°09' E 114°17'6 6.8
2015-Jun-26 13:31N 22°09' E 114°24'5 1.9
2015-Jun-26 11:03N 22°06' E 114°28'0 0.0
2015-Jun-26 10:33N 22°06' E 114°28'0 0.0
2015-Jun-26 03:18N 22°06' E 114°28'3 3.2
2015-Jun-26 02:28N 22°04' E 114°27'1513.9
2015-Jun-26 01:25N 21°51' E 114°19'  
Track history (hours):
 
Tides and Currents Weather Stations Pressure Air Temp Water Temp Dewpoint Dewpoint Depression Visibility Wind Speed Wind Dir Waves Ship Positions

Chiricana

Last reported at 2015-Jul-04 20:07 UTC. Time now 2015-Jul-06 01:01 UTC.
Position N 01°51' E 102°28'.

Length 300 m; draft 13.3 m.

Type: Ship (hazmat cat D). MMSI: 372829000.

Date/timePositionNaut miles runAvg speedWind from/ knotsBaromVisibWave heightAir tempDewpointWater temp
2015-Jul-04 20:07N 01°51' E 102°28'1321.6
2015-Jul-04 19:31N 01°46' E 102°40'6519.3
2015-Jul-04 16:09N 01°12' E 103°35'17 6.4
2015-Jul-04 13:33N 01°16' E 103°51'0 0.0
2015-Jul-04 12:33N 01°16' E 103°51'0 0.0
2015-Jul-04 11:27N 01°16' E 103°51'0 0.0
2015-Jul-04 10:27N 01°16' E 103°51'0 0.0
2015-Jul-04 09:33N 01°16' E 103°51'0 0.0
2015-Jul-04 08:33N 01°16' E 103°51'0 0.0
2015-Jul-04 07:27N 01°16' E 103°51'0 0.0
2015-Jul-04 06:27N 01°16' E 103°51'0 0.0
2015-Jul-04 05:33N 01°16' E 103°51'0 0.0
2015-Jul-04 04:33N 01°16' E 103°51'0 0.0
2015-Jul-04 03:33N 01°16' E 103°51'0 0.0
2015-Jul-04 02:27N 01°16' E 103°51'0 0.0
2015-Jul-04 01:33N 01°16' E 103°51'0 0.0
2015-Jul-04 00:33N 01°16' E 103°51'0 0.0
2015-Jul-03 23:21N 01°16' E 103°51'0 0.0
2015-Jul-03 22:33N 01°16' E 103°51'0 0.0
2015-Jul-03 21:33N 01°16' E 103°51'0 0.0
2015-Jul-03 20:33N 01°16' E 103°51'0 0.0
2015-Jul-03 19:33N 01°16' E 103°51'0 0.0
2015-Jul-03 18:33N 01°16' E 103°51'0 0.0
2015-Jul-03 17:33N 01°16' E 103°51'0 0.0
2015-Jul-03 16:33N 01°16' E 103°51'0 0.0
2015-Jul-03 15:33N 01°16' E 103°51'0 0.0
2015-Jul-03 14:33N 01°16' E 103°51'0 0.0
2015-Jul-03 13:33N 01°16' E 103°51'4 4.1
2015-Jul-03 12:33N 01°14' E 103°54'8 8.4
2015-Jul-03 11:33N 01°16' E 104°02'1414.1
2015-Jul-03 10:32N 01°18' E 104°17'  
2015-Jun-28 21:04N 22°06' E 114°28'1018.9
2015-Jun-28 20:33N 22°16' E 114°29'2014.5
2015-Jun-28 19:10N 22°34' E 114°19'3 3.6
2015-Jun-28 18:24N 22°34' E 114°16'0 0.0
2015-Jun-28 17:07N 22°34' E 114°16'0 0.0
2015-Jun-28 16:25N 22°34' E 114°16'1 0.0
2015-Jun-27 20:26N 22°34' E 114°16'15 7.9
2015-Jun-27 18:30N 22°22' E 114°27'1415.1
2015-Jun-27 17:33N 22°09' E 114°22'1111.0
2015-Jun-27 16:33N 22°12' E 114°10'8 8.0
2015-Jun-27 15:33N 22°20' E 114°07'0 0.3
2015-Jun-27 14:33N 22°20' E 114°08'0 0.0
2015-Jun-27 13:31N 22°20' E 114°08'0 0.0
2015-Jun-27 12:32N 22°20' E 114°08'0 0.0
2015-Jun-27 11:29N 22°20' E 114°08'0 0.0
2015-Jun-27 10:31N 22°20' E 114°08'0 0.0
2015-Jun-27 09:25N 22°20' E 114°08'0 0.0
2015-Jun-27 08:31N 22°20' E 114°08'0 0.0
2015-Jun-27 07:28N 22°20' E 114°08'0 0.0
2015-Jun-27 06:32N 22°20' E 114°08'0 0.0
2015-Jun-27 05:31N 22°20' E 114°08'0 0.1
2015-Jun-27 04:25N 22°20' E 114°07'0 0.1
2015-Jun-27 03:29N 22°20' E 114°08'0 0.0
2015-Jun-27 02:32N 22°20' E 114°08'0 0.0
2015-Jun-27 01:31N 22°20' E 114°08'0 0.0
2015-Jun-27 00:32N 22°20' E 114°08'0 0.0
2015-Jun-26 23:31N 22°20' E 114°08'0 0.0
2015-Jun-26 22:29N 22°20' E 114°08'0 0.0
2015-Jun-26 21:29N 22°20' E 114°08'0 0.0
2015-Jun-26 20:31N 22°20' E 114°08'0 0.0
2015-Jun-26 19:28N 22°20' E 114°08'0 0.0
2015-Jun-26 18:32N 22°20' E 114°08'0 0.0
2015-Jun-26 17:28N 22°20' E 114°08'0 0.4
2015-Jun-26 16:34N 22°20' E 114°07'7 7.3
2015-Jun-26 15:33N 22°13' E 114°10'8 7.1
2015-Jun-26 14:28N 22°09' E 114°17'6 6.8
2015-Jun-26 13:31N 22°09' E 114°24'5 1.9
2015-Jun-26 11:03N 22°06' E 114°28'0 0.0
2015-Jun-26 10:33N 22°06' E 114°28'0 0.0
2015-Jun-26 03:18N 22°06' E 114°28'3 3.2
2015-Jun-26 02:28N 22°04' E 114°27'1513.9
2015-Jun-26 01:25N 21°51' E 114°19'  

Dump ship's entire track history